Time;durP1;ratioP1;P1;durP2;ratioP2;P2;SDS_P1;SDS_P2;PMS_P1;PMS_P2;Temp;Humidity;BMP_temperature;BMP_pressure;BME280_temperature;BME280_humidity;BME280_pressure;Samples;Min_cycle;Max_cycle;Signal;HPM_P1;HPM_P2
2023/11/02 00:01:39;;;;;;;23.58;16.58;;;;;;;14.50;68.38;98481.31;5111380;28;20088;-56
2023/11/02 00:04:04;;;;;;;23.02;15.55;;;;;;;14.54;68.37;98489.03;5111672;28;20331;-58
2023/11/02 00:06:37;;;;;;;23.67;15.98;;;;;;;14.63;68.60;98490.59;5114747;28;20092;-57
2023/11/02 00:09:03;;;;;;;24.10;16.60;;;;;;;14.58;68.54;98482.25;5115555;28;20434;-57
2023/11/02 00:11:52;;;;;;;25.80;16.15;;;;;;;14.72;68.62;98486.00;5095380;28;20072;-59
2023/11/02 00:14:18;;;;;;;20.40;14.52;;;;;;;14.60;68.35;98481.06;5095734;28;20028;-56
2023/11/02 00:16:45;;;;;;;20.10;14.50;;;;;;;14.59;68.61;98479.38;5095771;28;20143;-57
2023/11/02 00:19:32;;;;;;;22.50;15.13;;;;;;;14.72;68.71;98481.47;5103080;28;20422;-58
2023/11/02 00:22:07;;;;;;;20.25;14.60;;;;;;;14.69;68.47;98480.97;5115041;28;20035;-57
2023/11/02 00:24:40;;;;;;;20.58;15.02;;;;;;;14.62;68.37;98468.22;5115913;28;20138;-58
2023/11/02 00:27:07;;;;;;;21.92;14.68;;;;;;;14.56;68.30;98463.56;5115487;28;20123;-54
2023/11/02 00:29:33;;;;;;;25.10;14.68;;;;;;;14.62;68.39;98468.22;5114704;28;20039;-57
2023/11/02 00:31:59;;;;;;;20.23;14.52;;;;;;;14.60;68.20;98458.66;5115533;28;20027;-55
2023/11/02 00:34:28;;;;;;;20.90;15.35;;;;;;;14.67;68.16;98458.75;5115287;28;20077;-58
2023/11/02 00:36:55;;;;;;;23.75;14.20;;;;;;;14.67;68.38;98462.28;5114914;28;20056;-56
2023/11/02 00:39:21;;;;;;;19.92;14.07;;;;;;;14.48;68.26;98429.50;5115089;28;20027;-53
2023/11/02 00:41:47;;;;;;;21.92;14.05;;;;;;;14.64;68.28;98452.72;5115148;28;20027;-58
2023/11/02 00:44:17;;;;;;;18.88;14.50;;;;;;;14.64;68.30;98449.19;5115568;28;20043;-57
2023/11/02 00:46:46;;;;;;;19.42;13.65;;;;;;;14.66;68.12;98449.81;5114086;28;20031;-54
2023/11/02 00:49:19;;;;;;;23.58;14.25;;;;;;;14.70;68.27;98445.75;5114271;28;20354;-54
2023/11/02 00:51:55;;;;;;;18.40;13.15;;;;;;;14.50;68.35;98405.91;5115584;28;20172;-53
2023/11/02 00:54:49;;;;;;;23.60;14.43;;;;;;;14.76;68.56;98441.50;5114781;28;20030;-55
2023/11/02 00:57:16;;;;;;;17.95;13.32;;;;;;;14.59;68.32;98424.66;5115516;28;20031;-54
2023/11/02 00:59:47;;;;;;;22.00;14.25;;;;;;;14.52;68.70;98423.72;5114334;28;20038;-58
2023/11/02 01:02:14;;;;;;;25.52;15.50;;;;;;;14.31;68.87;98401.03;5114983;28;20032;-54
2023/11/02 01:04:40;;;;;;;19.50;14.40;;;;;;;14.49;68.89;98433.84;5114562;28;20034;-56
2023/11/02 01:07:05;;;;;;;19.92;14.85;;;;;;;14.48;68.91;98434.03;5114929;28;20146;-59
2023/11/02 01:09:46;;;;;;;23.27;15.63;;;;;;;14.60;68.97;98439.81;5114520;28;20114;-56
2023/11/02 01:12:28;;;;;;;24.85;16.10;;;;;;;14.49;69.27;98420.38;5114556;28;20457;-59
2023/11/02 01:14:55;;;;;;;33.40;22.38;;;;;;;14.47;69.37;98433.22;5114600;28;20031;-57
2023/11/02 01:17:37;;;;;;;26.10;17.52;;;;;;;14.53;69.96;98434.31;5113692;28;20416;-58
2023/11/02 01:20:03;;;;;;;23.00;16.17;;;;;;;14.40;69.84;98437.63;5114496;28;20023;-56
2023/11/02 01:22:29;;;;;;;25.30;16.75;;;;;;;14.36;70.26;98428.25;5114240;28;20077;-56
2023/11/02 01:25:11;;;;;;;24.73;15.88;;;;;;;14.21;70.84;98399.44;5114304;28;20031;-55
2023/11/02 01:27:37;;;;;;;25.17;16.25;;;;;;;14.33;71.15;98431.31;5113918;28;20055;-55
2023/11/02 01:30:09;;;;;;;25.10;16.58;;;;;;;14.35;71.15;98431.97;5114419;28;20047;-56
2023/11/02 01:32:35;;;;;;;24.98;17.15;;;;;;;14.30;71.32;98431.69;5114556;28;20050;-59
2023/11/02 01:35:08;;;;;;;24.38;16.63;;;;;;;14.13;71.71;98386.06;5114077;28;20482;-55
2023/11/02 01:37:34;;;;;;;26.80;17.13;;;;;;;14.23;71.77;98422.63;5113113;28;20031;-56
2023/11/02 01:40:30;;;;;;;25.52;16.48;;;;;;;14.28;71.89;98429.16;5113493;28;20038;-57
2023/11/02 01:42:56;;;;;;;24.60;16.33;;;;;;;14.20;72.32;98442.69;5114526;28;20359;-57
2023/11/02 01:45:24;;;;;;;24.63;16.88;;;;;;;14.16;72.27;98436.84;5113656;28;20054;-59
2023/11/02 01:48:04;;;;;;;27.17;17.85;;;;;;;14.19;72.57;98423.00;5113730;28;20024;-57
2023/11/02 01:51:00;;;;;;;26.88;17.17;;;;;;;14.30;72.48;98427.13;5114319;28;20023;-59
2023/11/02 01:53:59;;;;;;;27.65;17.92;;;;;;;14.29;72.58;98428.13;5113106;28;20097;-55
2023/11/02 01:56:35;;;;;;;25.33;16.38;;;;;;;14.04;72.60;98403.31;5112799;28;20112;-57
2023/11/02 01:59:41;;;;;;;28.40;17.13;;;;;;;14.29;72.93;98430.00;5112738;28;20034;-55
2023/11/02 02:02:17;;;;;;;23.65;16.42;;;;;;;14.23;72.76;98425.31;5050992;28;20044;-56
2023/11/02 02:04:55;;;;;;;;;;;;;;;14.49;72.26;98428.47;5089114;28;20032;-56
2023/11/02 02:07:32;;;;;;;27.98;16.38;;;;;;;14.29;72.63;98430.00;5093288;28;19912;-55
2023/11/02 02:10:13;;;;;;;26.05;16.77;;;;;;;14.19;73.39;98428.38;5113478;28;20118;-55
2023/11/02 02:12:51;;;;;;;26.35;17.50;;;;;;;14.13;73.61;98415.66;5113926;28;20254;-56
2023/11/02 02:15:44;;;;;;;26.90;17.00;;;;;;;14.04;74.18;98422.16;5113659;28;20033;-57
2023/11/02 02:18:41;;;;;;;27.92;17.58;;;;;;;14.05;74.48;98419.25;5079927;28;20143;-51
2023/11/02 02:21:24;;;;;;;25.80;17.10;;;;;;;14.03;74.82;98417.78;5089012;28;20039;-56
2023/11/02 02:24:02;;;;;;;30.75;18.17;;;;;;;13.98;74.97;98420.16;5113485;28;20035;-59
2023/11/02 02:26:48;;;;;;;27.05;17.45;;;;;;;13.98;75.30;98420.16;5113031;28;20039;-53
2023/11/02 02:29:44;;;;;;;27.20;16.90;;;;;;;14.02;75.27;98429.56;5112601;28;20077;-57
2023/11/02 02:32:26;;;;;;;23.45;14.88;;;;;;;13.76;74.71;98401.19;5112496;28;20474;-55
2023/11/02 02:35:00;;;;;;;13.20;9.25;;;;;;;13.64;74.04;98425.78;5112905;28;20081;-56
2023/11/02 02:37:57;;;;;;;12.98;8.32;;;;;;;13.56;74.52;98425.84;5112870;28;20131;-57
2023/11/02 02:40:43;;;;;;;8.82;6.40;;;;;;;13.36;74.85;98422.72;5113057;28;20043;-54
2023/11/02 02:43:12;;;;;;;6.45;4.60;;;;;;;12.91;74.37;98380.31;5112553;28;20043;-58
2023/11/02 02:45:40;;;;;;;8.20;4.50;;;;;;;12.99;74.86;98430.47;5112570;28;20023;-54
2023/11/02 02:48:07;;;;;;;5.60;4.25;;;;;;;12.86;75.14;98427.50;5112800;28;20039;-54
2023/11/02 02:50:34;;;;;;;4.55;3.80;;;;;;;12.59;75.31;98389.31;5112743;28;20028;-55
2023/11/02 02:53:03;;;;;;;5.78;4.10;;;;;;;12.69;75.60;98421.34;5113043;28;20369;-57
2023/11/02 02:55:32;;;;;;;5.20;3.60;;;;;;;12.66;75.48;98424.34;5112782;28;20031;-52
2023/11/02 02:58:01;;;;;;;4.80;4.05;;;;;;;12.59;75.63;98417.00;5112911;28;20061;-52
2023/11/02 03:00:28;;;;;;;5.03;3.65;;;;;;;12.53;75.59;98416.84;5113047;28;20028;-57
2023/11/02 03:02:57;;;;;;;4.43;3.53;;;;;;;12.49;75.96;98409.13;5112881;28;20050;-57
2023/11/02 03:05:24;;;;;;;3.83;2.90;;;;;;;12.45;76.04;98413.16;5112118;28;20442;-58
2023/11/02 03:07:53;;;;;;;2.90;2.60;;;;;;;12.41;75.76;98414.53;5112270;28;20106;-58
2023/11/02 03:10:20;;;;;;;2.95;2.65;;;;;;;12.34;75.88;98410.84;5113162;28;20070;-57
2023/11/02 03:12:47;;;;;;;4.10;2.80;;;;;;;12.30;75.88;98428.31;5112133;28;20023;-58
2023/11/02 03:15:15;;;;;;;3.22;2.47;;;;;;;12.22;76.13;98414.88;5112467;28;20074;-57
2023/11/02 03:18:07;;;;;;;2.83;2.50;;;;;;;12.20;75.68;98423.94;5112950;28;20031;-54
2023/11/02 03:20:33;;;;;;;2.22;2.03;;;;;;;12.04;74.97;98424.78;5111904;28;20026;-58
2023/11/02 03:23:04;;;;;;;1.80;1.70;;;;;;;11.97;75.04;98420.22;5112368;28;20353;-55
2023/11/02 03:25:42;;;;;;;1.70;1.58;;;;;;;11.92;74.46;98432.31;5112704;28;20100;-56
2023/11/02 03:28:38;;;;;;;2.17;1.70;;;;;;;11.89;74.54;98432.63;5112806;28;20131;-53
2023/11/02 03:31:33;;;;;;;2.13;1.60;;;;;;;11.78;74.25;98424.91;5111933;28;20039;-59
2023/11/02 03:34:40;;;;;;;2.08;1.30;;;;;;;11.82;74.64;98437.00;5084082;28;20484;-58
2023/11/02 03:37:22;;;;;;;2.50;1.60;;;;;;;11.67;74.41;98425.25;5082163;28;20043;-57
2023/11/02 03:40:19;;;;;;;2.10;1.80;;;;;;;11.63;74.55;98430.94;5112480;28;20051;-56
2023/11/02 03:43:23;;;;;;;3.78;1.60;;;;;;;11.62;74.53;98429.25;5116112;28;20847;-55
2023/11/02 03:46:26;;;;;;;1.50;1.40;;;;;;;11.61;74.37;98435.63;5115129;28;20363;-57
2023/11/02 03:49:03;;;;;;;3.20;1.60;;;;;;;11.51;74.32;98421.53;5115913;28;20464;-57
2023/11/02 03:52:07;;;;;;;2.42;1.60;;;;;;;11.47;74.81;98434.44;5115677;28;20366;-56
2023/11/02 03:55:16;;;;;;;2.00;1.80;;;;;;;11.61;74.73;98427.59;5053480;28;20086;-56
2023/11/02 03:58:16;;;;;;;2.10;1.77;;;;;;;11.58;74.83;98430.59;5050197;28;20048;-57
2023/11/02 04:00:52;;;;;;;3.85;1.92;;;;;;;11.26;74.68;98389.31;5114991;28;20047;-58
2023/11/02 04:03:20;;;;;;;5.43;1.80;;;;;;;11.45;74.94;98422.19;5115248;28;20042;-60
2023/11/02 04:05:49;;;;;;;2.67;2.15;;;;;;;11.39;74.87;98420.16;5116343;28;20034;-57
2023/11/02 04:08:19;;;;;;;3.05;2.22;;;;;;;11.42;75.18;98428.69;5115714;28;20103;-59
2023/11/02 04:11:08;;;;;;;4.75;2.25;;;;;;;11.23;75.30;98381.59;5114910;28;20020;-58
2023/11/02 04:13:45;;;;;;;3.03;2.42;;;;;;;11.44;75.17;98426.69;5114721;28;20069;-58
2023/11/02 04:16:11;;;;;;;3.00;2.40;;;;;;;11.40;75.61;98419.16;5116282;28;20032;-58
2023/11/02 04:18:38;;;;;;;2.40;2.20;;;;;;;11.46;75.25;98426.53;5115472;28;20044;-56
2023/11/02 04:21:04;;;;;;;3.35;2.70;;;;;;;11.43;75.00;98424.19;5115451;28;20053;-57
2023/11/02 04:23:30;;;;;;;4.10;2.45;;;;;;;11.44;75.10;98420.50;5114956;28;20035;-60
2023/11/02 04:25:56;;;;;;;4.03;2.63;;;;;;;11.43;75.27;98426.88;5115536;28;20131;-57
2023/11/02 04:28:23;;;;;;;2.92;2.65;;;;;;;11.45;74.92;98422.19;5115400;28;20113;-58
2023/11/02 04:30:48;;;;;;;3.28;2.78;;;;;;;11.38;75.09;98415.81;5114129;28;20456;-55
2023/11/02 04:33:14;;;;;;;5.15;2.95;;;;;;;11.39;75.26;98417.50;5115435;28;20034;-56
2023/11/02 04:35:41;;;;;;;3.63;3.08;;;;;;;11.43;75.43;98418.84;5115401;28;20031;-56
2023/11/02 04:38:08;;;;;;;5.35;3.33;;;;;;;11.43;75.45;98413.47;5114051;28;20108;-57
2023/11/02 04:40:35;;;;;;;3.45;3.10;;;;;;;11.37;75.62;98411.47;5114434;28;20031;-57
2023/11/02 04:43:02;;;;;;;3.10;2.78;;;;;;;11.23;75.81;98403.03;5114777;28;20038;-59
2023/11/02 04:45:28;;;;;;;3.10;2.78;;;;;;;11.38;76.02;98411.28;5114783;28;20335;-57
2023/11/02 04:47:54;;;;;;;4.18;2.85;;;;;;;11.10;75.84;98366.00;5114555;28;20063;-55
2023/11/02 04:50:20;;;;;;;4.47;2.97;;;;;;;11.36;76.02;98412.47;5115018;28;20058;-59
2023/11/02 04:52:48;;;;;;;4.93;3.20;;;;;;;11.36;75.91;98412.47;5113607;28;20027;-59
2023/11/02 04:55:13;;;;;;;4.50;3.33;;;;;;;11.31;76.18;98392.34;5114655;28;20042;-61
2023/11/02 04:57:39;;;;;;;5.30;3.10;;;;;;;11.39;76.29;98412.94;5115066;28;20358;-57
2023/11/02 05:00:05;;;;;;;4.65;2.88;;;;;;;11.37;75.90;98398.88;5114086;28;20400;-58
2023/11/02 05:02:32;;;;;;;4.75;3.83;;;;;;;11.36;75.92;98407.09;5114304;28;20089;-58
2023/11/02 05:04:58;;;;;;;6.43;4.20;;;;;;;11.27;75.75;98391.00;5115463;28;20434;-57
2023/11/02 05:07:23;;;;;;;7.03;4.13;;;;;;;11.29;76.33;98393.50;5114182;28;20032;-56
2023/11/02 05:09:49;;;;;;;5.25;4.03;;;;;;;11.30;76.10;98397.88;5113567;28;20036;-57
2023/11/02 05:12:15;;;;;;;5.82;4.90;;;;;;;11.27;76.33;98392.84;5114746;28;20019;-57
2023/11/02 05:14:40;;;;;;;5.25;4.57;;;;;;;11.30;75.92;98396.00;5114412;28;20059;-56
2023/11/02 05:17:06;;;;;;;4.22;3.47;;;;;;;11.32;76.01;98395.88;5114305;28;20047;-55
2023/11/02 05:19:31;;;;;;;4.72;3.55;;;;;;;11.29;75.97;98383.63;5114207;28;20110;-57
2023/11/02 05:21:57;;;;;;;4.40;3.17;;;;;;;11.33;75.57;98392.19;5114658;28;20035;-55
2023/11/02 05:24:22;;;;;;;4.75;3.88;;;;;;;11.31;75.76;98388.81;5114424;28;20027;-57
2023/11/02 05:26:48;;;;;;;3.90;3.60;;;;;;;11.23;75.59;98368.22;5114141;28;20048;-55
2023/11/02 05:29:14;;;;;;;7.05;3.33;;;;;;;11.29;75.49;98382.81;5114098;28;20032;-55
2023/11/02 05:31:39;;;;;;;3.97;3.15;;;;;;;11.29;75.57;98382.81;5114179;28;20035;-58
2023/11/02 05:34:05;;;;;;;2.80;2.60;;;;;;;11.22;75.29;98390.66;5114093;28;20032;-58
2023/11/02 05:36:30;;;;;;;2.53;2.22;;;;;;;11.17;75.74;98409.88;5113798;28;20027;-58
2023/11/02 05:38:56;;;;;;;4.07;2.58;;;;;;;11.18;76.00;98410.72;5113811;28;20339;-57
2023/11/02 05:41:22;;;;;;;6.07;2.70;;;;;;;11.18;75.51;98405.38;5113209;28;20347;-63
2023/11/02 05:43:48;;;;;;;3.20;2.65;;;;;;;11.13;75.58;98397.00;5113479;28;20034;-62
2023/11/02 05:46:13;;;;;;;2.70;2.33;;;;;;;11.18;75.64;98400.84;5113664;28;20042;-64
2023/11/02 05:48:39;;;;;;;2.58;2.20;;;;;;;11.19;75.23;98413.22;5113159;28;20028;-63
2023/11/02 05:51:05;;;;;;;3.95;2.45;;;;;;;11.20;75.35;98404.19;5113721;28;20039;-62
2023/11/02 05:53:31;;;;;;;3.60;2.25;;;;;;;11.12;75.26;98398.81;5114447;28;20476;-63
2023/11/02 05:55:56;;;;;;;3.42;2.30;;;;;;;11.15;75.14;98393.13;5113504;28;20043;-63
2023/11/02 05:58:22;;;;;;;3.10;2.10;;;;;;;11.15;75.09;98395.81;5113183;28;20032;-63
2023/11/02 06:00:48;;;;;;;2.30;2.05;;;;;;;11.15;75.22;98405.69;5113405;28;20383;-62
2023/11/02 06:03:14;;;;;;;3.80;2.38;;;;;;;11.14;74.79;98402.16;5113683;28;20110;-64
2023/11/02 06:05:39;;;;;;;2.22;1.98;;;;;;;11.10;74.79;98400.00;5113673;28;20111;-63
2023/11/02 06:08:05;;;;;;;3.47;2.22;;;;;;;11.09;75.02;98393.78;5113198;27;20036;-61
2023/11/02 06:10:31;;;;;;;2.97;2.33;;;;;;;10.98;75.03;98376.19;5114176;28;20407;-63
2023/11/02 06:12:57;;;;;;;2.25;2.05;;;;;;;11.08;74.62;98383.22;5113695;28;20422;-63
2023/11/02 06:15:23;;;;;;;2.50;2.15;;;;;;;11.08;75.11;98377.88;5113371;28;20435;-64
2023/11/02 06:17:48;;;;;;;4.32;3.00;;;;;;;10.98;74.76;98365.47;5112754;28;20062;-63
2023/11/02 06:20:14;;;;;;;3.08;2.45;;;;;;;10.94;74.93;98372.16;5112870;28;20366;-62
2023/11/02 06:22:40;;;;;;;4.00;2.88;;;;;;;11.01;75.14;98377.72;5113129;28;20032;-63
2023/11/02 06:25:06;;;;;;;3.78;2.80;;;;;;;11.03;74.85;98373.03;5113015;28;20503;-62
2023/11/02 06:27:32;;;;;;;3.78;2.50;;;;;;;10.96;75.01;98361.25;5112955;28;20055;-62
2023/11/02 06:29:58;;;;;;;3.13;2.38;;;;;;;11.00;75.18;98378.72;5113426;28;20361;-62
2023/11/02 06:32:23;;;;;;;3.30;2.50;;;;;;;10.97;74.86;98366.47;5113239;28;20135;-64
2023/11/02 06:34:49;;;;;;;4.63;2.40;;;;;;;11.02;74.94;98374.03;5112831;28;20042;-63
2023/11/02 06:37:18;;;;;;;3.13;2.38;;;;;;;11.05;74.93;98371.03;5113073;28;20020;-63
2023/11/02 06:39:45;;;;;;;5.15;2.30;;;;;;;11.04;74.46;98378.19;5111457;28;20024;-63
2023/11/02 06:42:12;;;;;;;2.35;2.13;;;;;;;10.98;74.42;98359.28;5112948;28;20432;-64
2023/11/02 06:44:43;;;;;;;3.05;1.92;;;;;;;11.00;74.33;98366.13;5111663;28;20058;-63
2023/11/02 06:47:14;;;;;;;3.20;2.30;;;;;;;10.88;74.28;98346.03;5112973;28;20074;-63
2023/11/02 06:49:40;;;;;;;2.97;2.15;;;;;;;10.99;74.44;98355.59;5112251;28;20024;-62
2023/11/02 06:52:05;;;;;;;4.47;2.10;;;;;;;10.99;74.75;98363.63;5113061;28;20116;-59
2023/11/02 06:54:31;;;;;;;3.90;2.60;;;;;;;10.99;74.54;98364.47;5112296;28;20028;-63
2023/11/02 06:56:57;;;;;;;2.55;2.17;;;;;;;10.95;73.88;98357.75;5112393;28;20468;-63
2023/11/02 06:59:23;;;;;;;2.55;2.17;;;;;;;10.95;74.22;98349.72;5112989;28;20078;-63
2023/11/02 07:01:50;;;;;;;4.03;2.40;;;;;;;10.95;74.53;98344.38;5112642;28;20358;-62
2023/11/02 07:04:17;;;;;;;4.30;2.17;;;;;;;10.94;74.17;98339.16;5111948;28;20126;-62
2023/11/02 07:06:42;;;;;;;4.90;2.00;;;;;;;10.95;73.85;98351.56;5112956;28;20070;-62
2023/11/02 07:09:08;;;;;;;3.45;1.70;;;;;;;10.95;74.01;98356.91;5112725;28;20031;-63
2023/11/02 07:11:34;;;;;;;2.75;1.92;;;;;;;10.96;73.81;98354.09;5112582;28;20418;-64
2023/11/02 07:14:00;;;;;;;1.73;1.63;;;;;;;10.94;73.62;98366.78;5111870;28;20456;-62
2023/11/02 07:16:25;;;;;;;1.90;1.52;;;;;;;10.90;73.69;98352.88;5116562;28;20035;-63
2023/11/02 07:19:00;;;;;;;6.65;2.30;;;;;;;10.93;73.53;98356.22;5117818;28;20042;-62
2023/11/02 07:21:26;;;;;;;4.72;2.20;;;;;;;10.84;73.29;98350.00;5118229;28;20046;-63
2023/11/02 07:23:52;;;;;;;3.50;2.30;;;;;;;10.75;73.81;98352.66;5116711;28;20035;-63
2023/11/02 07:26:17;;;;;;;5.43;3.25;;;;;;;10.61;74.00;98342.59;5116794;28;20043;-62
2023/11/02 07:28:43;;;;;;;4.25;2.75;;;;;;;10.61;73.93;98342.59;5116342;28;20104;-63
2023/11/02 07:31:09;;;;;;;2.35;2.08;;;;;;;10.62;73.72;98371.03;5116094;28;20104;-62
2023/11/02 07:33:40;;;;;;;2.85;2.22;;;;;;;10.59;73.87;98371.31;5116712;28;20031;-62
2023/11/02 07:36:13;;;;;;;2.92;1.88;;;;;;;10.60;73.75;98373.00;5113980;28;20396;-63
2023/11/02 07:38:39;;;;;;;6.38;1.90;;;;;;;10.26;73.58;98331.00;5112391;27;20125;-66
2023/11/02 07:41:08;;;;;;;4.57;2.10;;;;;;;10.50;73.94;98357.09;5113992;28;20024;-66
2023/11/02 07:43:34;;;;;;;4.68;1.90;;;;;;;10.16;73.51;98323.94;5112029;28;20038;-64
2023/11/02 07:46:00;;;;;;;2.88;1.38;;;;;;;10.34;73.46;98357.78;5116031;28;20035;-65
2023/11/02 07:48:25;;;;;;;2.33;1.50;;;;;;;10.33;74.16;98361.47;5116454;28;20031;-65
2023/11/02 07:50:51;;;;;;;2.67;1.73;;;;;;;10.08;73.64;98326.53;5115277;28;20051;-64
2023/11/02 07:53:19;;;;;;;3.53;1.50;;;;;;;10.33;73.67;98369.50;5115445;28;20039;-64
2023/11/02 07:55:45;;;;;;;2.17;1.83;;;;;;;10.29;74.03;98360.97;5114953;28;20457;-65
2023/11/02 07:58:11;;;;;;;2.47;1.67;;;;;;;10.30;73.96;98364.47;5115334;28;20450;-64
2023/11/02 08:00:36;;;;;;;4.28;1.92;;;;;;;10.26;74.11;98363.97;5116303;28;20030;-65
2023/11/02 08:03:03;;;;;;;4.55;2.03;;;;;;;10.27;74.19;98362.97;5115503;28;20505;-65
2023/11/02 08:05:29;;;;;;;15.73;8.93;;;;;;;10.09;74.03;98338.09;5115539;28;20042;-63
2023/11/02 08:07:54;;;;;;;5.03;3.85;;;;;;;10.20;73.88;98359.22;5115509;28;20024;-65
2023/11/02 08:10:20;;;;;;;3.95;2.67;;;;;;;10.07;74.20;98353.47;5115179;28;20043;-66
2023/11/02 08:12:46;;;;;;;2.85;1.88;;;;;;;10.14;73.50;98370.53;5115748;28;20449;-63
2023/11/02 08:15:11;;;;;;;2.63;1.60;;;;;;;10.02;73.59;98378.84;5115054;28;20036;-61
2023/11/02 08:17:37;;;;;;;1.92;1.20;;;;;;;9.96;73.74;98384.78;5116027;28;20038;-62
2023/11/02 08:20:02;;;;;;;2.08;1.38;;;;;;;9.88;73.42;98388.22;5114188;28;20023;-65
2023/11/02 08:22:30;;;;;;;2.20;1.23;;;;;;;9.78;73.96;98376.81;5113221;28;20891;-63
2023/11/02 08:24:56;;;;;;;4.97;1.80;;;;;;;9.71;73.49;98381.91;5114880;28;20084;-60
2023/11/02 08:27:22;;;;;;;1.65;1.33;;;;;;;9.69;73.82;98383.09;5114843;28;20443;-62
2023/11/02 08:29:47;;;;;;;2.25;1.33;;;;;;;9.62;72.77;98391.69;5114570;28;20016;-60
2023/11/02 08:32:13;;;;;;;1.45;1.30;;;;;;;9.49;72.97;98391.25;5114689;28;20055;-63
2023/11/02 08:34:42;;;;;;;4.10;1.73;;;;;;;9.41;73.45;98384.00;5115348;27;20028;-64
2023/11/02 08:37:11;;;;;;;3.47;1.52;;;;;;;9.13;73.03;98354.69;5113842;28;20031;-66
2023/11/02 08:39:38;;;;;;;2.88;1.63;;;;;;;9.22;73.50;98378.78;5115447;28;20028;-66
2023/11/02 08:42:03;;;;;;;2.38;1.38;;;;;;;9.13;73.64;98384.06;5114551;27;20039;-66
2023/11/02 08:44:29;;;;;;;1.88;1.02;;;;;;;9.09;73.75;98384.50;5115052;28;20035;-65
2023/11/02 08:46:54;;;;;;;3.25;1.10;;;;;;;9.04;73.41;98390.28;5115379;28;20020;-65
2023/11/02 08:49:20;;;;;;;1.88;1.20;;;;;;;9.00;73.38;98388.88;5115334;28;20056;-66
2023/11/02 08:51:46;;;;;;;3.05;1.50;;;;;;;8.95;73.67;98381.34;5113708;28;20114;-63
2023/11/02 08:54:12;;;;;;;33.70;15.98;;;;;;;8.93;73.90;98379.81;5115038;28;20074;-59
2023/11/02 08:56:37;;;;;;;6.35;3.20;;;;;;;8.89;73.96;98387.25;5115413;27;20019;-64
2023/11/02 08:59:03;;;;;;;5.63;2.38;;;;;;;8.85;74.23;98386.75;5113384;28;20499;-60
2023/11/02 09:01:29;;;;;;;4.90;2.60;;;;;;;8.80;74.36;98382.81;5114079;28;20092;-56
2023/11/02 09:03:56;;;;;;;3.38;2.00;;;;;;;8.76;74.75;98377.78;5114686;28;20023;-57
2023/11/02 09:06:23;;;;;;;3.17;1.98;;;;;;;8.81;74.68;98396.03;5114399;28;20020;-58
2023/11/02 09:08:49;;;;;;;4.63;1.90;;;;;;;8.80;74.26;98390.84;5107717;28;20035;-57
2023/11/02 09:11:16;;;;;;;5.32;1.80;;;;;;;8.80;74.66;98385.50;5110579;28;20047;-57
2023/11/02 09:13:43;;;;;;;2.67;1.92;;;;;;;8.79;74.61;98381.16;5112557;28;20110;-55
2023/11/02 09:16:09;;;;;;;5.63;2.03;;;;;;;8.79;74.63;98381.16;5113542;28;20030;-53
2023/11/02 09:18:35;;;;;;;3.55;1.90;;;;;;;8.72;74.21;98380.91;5112793;28;20020;-58
2023/11/02 09:21:01;;;;;;;3.25;2.42;;;;;;;8.73;74.80;98378.09;5113471;28;20055;-53
2023/11/02 09:23:27;;;;;;;5.18;2.40;;;;;;;8.71;74.97;98374.72;5113269;28;20112;-54
2023/11/02 09:25:53;;;;;;;3.47;2.03;;;;;;;8.47;74.63;98335.19;5113328;28;20051;-57
2023/11/02 09:28:19;;;;;;;3.42;2.20;;;;;;;8.66;74.53;98368.97;5113698;28;20358;-57
2023/11/02 09:30:46;;;;;;;4.95;2.55;;;;;;;8.64;74.28;98364.78;5113852;27;20031;-56
2023/11/02 09:33:12;;;;;;;5.78;2.20;;;;;;;8.54;73.92;98372.84;5112535;28;20028;-54
2023/11/02 09:35:39;;;;;;;5.38;2.53;;;;;;;8.44;74.55;98372.84;5113290;28;20053;-54
2023/11/02 09:38:04;;;;;;;5.20;2.35;;;;;;;8.36;74.28;98362.91;5110758;28;20020;-55
2023/11/02 09:40:32;;;;;;;7.70;2.53;;;;;;;8.34;74.84;98364.88;5112632;28;20019;-56
2023/11/02 09:43:02;;;;;;;3.92;2.15;;;;;;;8.37;74.52;98369.09;5113114;28;20046;-51
2023/11/02 09:45:32;;;;;;;5.43;3.53;;;;;;;8.38;74.44;98374.25;5112899;28;20131;-53
2023/11/02 09:47:59;;;;;;;3.83;2.50;;;;;;;8.33;74.32;98371.19;5113262;28;20118;-53
2023/11/02 09:50:26;;;;;;;4.03;2.53;;;;;;;8.33;74.68;98372.03;5111652;28;20031;-55
2023/11/02 09:52:56;;;;;;;3.10;2.42;;;;;;;8.33;74.17;98381.84;5113377;28;20104;-49
2023/11/02 09:55:26;;;;;;;3.20;1.83;;;;;;;8.32;74.45;98370.38;5112706;28;20058;-54
2023/11/02 09:57:52;;;;;;;1.63;1.20;;;;;;;8.23;74.69;98373.88;5112452;28;20039;-58
2023/11/02 10:00:19;;;;;;;3.70;1.80;;;;;;;8.25;74.67;98373.75;5111978;28;20080;-60
2023/11/02 10:02:48;;;;;;;3.65;2.10;;;;;;;8.30;75.02;98382.16;5113323;28;20079;-57
2023/11/02 10:05:15;;;;;;;2.42;1.58;;;;;;;8.29;74.88;98388.47;5112271;28;20703;-52
2023/11/02 10:07:41;;;;;;;3.22;1.50;;;;;;;8.29;74.71;98389.28;5111080;28;20020;-56
2023/11/02 10:10:08;;;;;;;6.35;1.77;;;;;;;8.31;74.74;98394.50;5092311;28;20036;-56
2023/11/02 10:12:37;;;;;;;2.55;1.35;;;;;;;8.27;74.79;98387.78;5092685;28;20085;-57
2023/11/02 10:15:06;;;;;;;2.58;1.83;;;;;;;8.26;75.25;98391.44;5099871;28;20096;-58
2023/11/02 10:17:38;;;;;;;5.90;1.63;;;;;;;8.23;74.56;98395.22;5108488;28;20024;-57
2023/11/02 10:20:14;;;;;;;3.45;1.75;;;;;;;8.22;74.77;98395.38;5109211;28;20769;-59
2023/11/02 10:22:44;;;;;;;5.38;1.50;;;;;;;8.16;74.91;98394.13;5111555;28;20367;-58
2023/11/02 10:25:14;;;;;;;2.97;1.55;;;;;;;8.19;75.28;98397.31;5111948;28;20047;-58
2023/11/02 10:27:44;;;;;;;3.90;2.10;;;;;;;8.19;74.70;98397.31;5105398;28;20068;-59
2023/11/02 10:30:11;;;;;;;3.75;1.77;;;;;;;8.18;75.04;98395.63;5106157;28;20040;-51
2023/11/02 10:32:37;;;;;;;2.60;2.03;;;;;;;7.99;74.86;98363.72;5100524;28;20036;-53
2023/11/02 10:35:04;;;;;;;2.92;1.75;;;;;;;7.93;74.54;98353.59;5110986;28;20412;-53
2023/11/02 10:37:34;;;;;;;3.47;1.88;;;;;;;8.08;74.62;98394.84;5112074;28;20097;-55
2023/11/02 10:40:00;;;;;;;3.97;1.67;;;;;;;8.08;75.24;98407.31;5093999;28;20036;-52
2023/11/02 10:42:27;;;;;;;3.88;1.67;;;;;;;8.05;75.00;98411.94;5103475;28;20055;-53
2023/11/02 10:44:54;;;;;;;3.75;1.73;;;;;;;8.04;74.88;98417.44;5107505;28;20023;-62
2023/11/02 10:47:26;;;;;;;2.08;1.60;;;;;;;8.06;75.09;98423.47;5111931;28;20070;-65
2023/11/02 10:49:54;;;;;;;3.80;2.17;;;;;;;7.99;74.69;98419.69;5112836;28;20035;-61
2023/11/02 10:52:29;;;;;;;2.72;1.63;;;;;;;7.92;74.83;98405.22;5111911;28;20418;-64
2023/11/02 10:55:14;;;;;;;2.13;1.75;;;;;;;8.02;74.60;98435.38;5110872;28;20134;-65
2023/11/02 10:57:41;;;;;;;5.32;1.75;;;;;;;7.87;74.56;98425.16;5112790;28;20134;-64
2023/11/02 11:00:08;;;;;;;1.95;1.40;;;;;;;7.75;74.72;98416.47;5112759;28;20102;-63
2023/11/02 11:02:39;;;;;;;2.13;1.38;;;;;;;7.83;74.28;98434.41;5111383;28;20027;-66
2023/11/02 11:05:05;;;;;;;4.63;1.58;;;;;;;7.81;74.66;98435.53;5112231;28;20031;-63
2023/11/02 11:07:40;;;;;;;1.88;1.60;;;;;;;7.82;74.32;98440.72;5112663;28;20042;-65
2023/11/02 11:10:10;;;;;;;3.38;1.67;;;;;;;7.76;73.94;98438.63;5111621;28;20038;-66
2023/11/02 11:12:36;;;;;;;5.05;2.05;;;;;;;7.49;74.18;98402.88;5111338;28;20067;-66
2023/11/02 11:15:02;;;;;;;3.10;1.55;;;;;;;7.73;74.16;98449.56;5111781;28;20063;-65
2023/11/02 11:17:31;;;;;;;1.83;1.50;;;;;;;7.77;74.59;98442.97;5112348;28;20096;-66
2023/11/02 11:19:57;;;;;;;3.20;1.67;;;;;;;7.77;74.18;98432.31;5112215;28;20027;-64
2023/11/02 11:22:30;;;;;;;2.00;1.58;;;;;;;7.55;74.01;98383.66;5110903;28;20032;-66
2023/11/02 11:25:03;;;;;;;2.25;1.38;;;;;;;7.83;73.42;98446.88;5108820;28;20028;-65
2023/11/02 11:27:35;;;;;;;5.23;2.03;;;;;;;7.80;73.40;98431.19;5111232;28;20085;-64
2023/11/02 11:30:04;;;;;;;4.50;2.15;;;;;;;7.83;72.81;98441.56;5111602;28;20364;-65
2023/11/02 11:32:34;;;;;;;3.25;1.75;;;;;;;7.78;72.13;98441.13;5111115;28;20031;-64
2023/11/02 11:35:03;;;;;;;3.13;1.40;;;;;;;7.68;71.52;98449.13;5111356;28;20037;-63
2023/11/02 11:37:44;;;;;;;2.05;1.40;;;;;;;7.69;71.71;98459.66;5108782;28;20034;-66
2023/11/02 11:40:23;;;;;;;3.40;1.85;;;;;;;7.75;72.06;98458.25;5110994;28;20063;-63
2023/11/02 11:42:52;;;;;;;1.95;1.30;;;;;;;7.73;72.28;98454.91;5111698;28;20513;-63
2023/11/02 11:45:34;;;;;;;2.22;1.50;;;;;;;7.85;72.39;98453.75;5112056;28;20027;-62
2023/11/02 11:48:05;;;;;;;1.73;1.33;;;;;;;7.80;71.53;98455.16;5112319;28;20042;-64